Tuesday, October 17, 2017, 2:55 PM EDT
Back to Local

KMQE, Milton Blue Hill Observ

Location: Milton, MA, United States Lat: 42.217
Local Time: 2:55 PM EDT (18:55 GMT) Lon: -71.117
Time Zone: US/Eastern Elev: 629 ft

Show me the last for .
Show Decoded

2017-10-17 13:56 METAR KMQE 171756Z AUTO 28007KT 12/M02 A3023 RMK AO1 SLP250 T01221022 10122
                 20022 58013 =
2017-10-17 12:56 METAR KMQE 171656Z AUTO VRB04KT 11/M03 A3025 RMK AO1 SLP257 T01061028 =
2017-10-17 11:56 METAR KMQE 171556Z AUTO VRB05KT 10/M02 A3026 RMK AO1 SLP262 T01001022 =
2017-10-17 10:56 METAR KMQE 171456Z AUTO VRB03KT 08/M02 A3027 RMK AO1 SLP264 T00831022 50005 =
2017-10-17 09:56 METAR KMQE 171356Z AUTO 35006KT 08/M01 A3028 RMK AO1 SLP268 T00781006 =
2017-10-17 08:56 METAR KMQE 171256Z AUTO 33006KT 05/00 A3027 RMK AO1 SLP266 T00500000 =
2017-10-17 07:56 METAR KMQE 171156Z AUTO 33008KT 02/M01 A3026 RMK AO1 SLP261 T00221006 10039
                 20022 53020 =
2017-10-17 06:56 METAR KMQE 171056Z AUTO 34009KT 02/M01 A3023 RMK AO1 SLP253 T00221011 =
2017-10-17 05:56 METAR KMQE 170956Z AUTO 34007KT 02/M01 A3022 RMK AO1 SLP246 T00221011 =
2017-10-17 04:56 METAR KMQE 170856Z AUTO 33009KT 03/M01 A3020 RMK AO1 SLP239 T00281011 53018 =
2017-10-17 03:56 METAR KMQE 170756Z AUTO 33011KT 03/M01 A3018 RMK AO1 SLP232 T00281006 =
2017-10-17 02:56 METAR KMQE 170656Z AUTO 33010KT 03/M01 A3016 RMK AO1 SLP227 T00331006 =
2017-10-17 01:56 METAR KMQE 170556Z AUTO 33009G15KT 04/M01 A3014 RMK AO1 SLP220 T00391006 10083
                 20039 50005 =
2017-10-17 00:56 METAR KMQE 170456Z AUTO 33011KT 04/M01 A3014 RMK AO1 SLP221 T00441006 401940044
                 =
2017-10-16 23:56 METAR KMQE 170356Z AUTO 33010G17KT 05/M01 A3014 RMK AO1 SLP217 T00501006 =
2017-10-16 22:56 METAR KMQE 170256Z AUTO 33008G22KT 06/00 A3013 RMK AO1 SLP214 T00610000 51024 =
2017-10-16 21:56 METAR KMQE 170156Z AUTO 33011G22KT 07/00 A3011 RMK AO1 PK WND 31026/0134 SLP206
                 T00720000 =
2017-10-16 20:56 METAR KMQE 170056Z AUTO 33015G22KT 08/01 A3008 RMK AO1 SLP197 T00780006 =
2017-10-16 19:56 METAR KMQE 162356Z AUTO 33009G19KT 08/01 A3005 RMK AO1 SLP189 T00830006 10122
                 20083 53026 =
2017-10-16 18:56 METAR KMQE 162256Z AUTO 33011G22KT 09/02 A3003 RMK AO1 SLP180 T00890017 =
2017-10-16 17:56 METAR KMQE 162156Z AUTO 32011G19KT 10/02 A2999 RMK AO1 SLP167 T01000022 =
2017-10-16 16:56 METAR KMQE 162056Z AUTO 33010G16KT 11/03 A2998 RMK AO1 SLP161 T01060028 53014 =
2017-10-16 15:56 METAR KMQE 161956Z AUTO 32011G21KT 11/03 A2996 RMK AO1 SLP155 T01060028 =
2017-10-16 14:56 METAR KMQE 161856Z AUTO 32010G14KT 12/04 A2993 RMK AO1 SLP146 T01170039 =

Support USWX by starting your Amazon purchase here.